Terminal Aerodrome Forecast
Issued by NWS Mt. Holly, NJ

Home | Current Version | Previous Version | Text Only | Print | Product List | Glossary On
Versions: 1 2 3 4 5 6 7 8 9 10 11 12 13 14 15 16 17 18
000
FTAK31 PANC 262340
TAFABE
TAF
PABE 262340Z 2700/2724 20020G30KT P6SM -SHRA SCT007 BKN030 OVC050
      TEMPO 2700/2704 2SM -SHRASN BKN015
     FM270800 18018G28KT 4SM -SN BR SCT003 BKN007 OVC015
     FM271300 21015KT 3SM -SN BR BKN003 OVC007
     FM271800 23012G20KT 5SM -SHSN FEW010 BKN020=

USA.gov is the U.S. government's official web portal to all federal, state and local government web resources and services.